Latest Weather Observations for Swanbourne

IDW60901

Issued at 11:01 pm WST Saturday 23 May 2015 (issued every 10 minutes, with the page automatically refreshed every 10 minutes)

About weather observations | Map of Perth area stations | Latest observations for Perth area | Other Formats
Station Details ID: 009215 Name: SWANBOURNE Lat: -31.96 Lon: 115.76 Height: 40.96 m
Data from the previous 72 hours. | See also: Recent months at Swanbourne
Date/Time
WST
Tmp

°C
App
Tmp
°C
Dew
Point
°C
Rel
Hum
%
Delta-T

°C
Wind Press
QNH
hPa
Press
MSL
hPa
Rain
since
9 am
mm
Dir
 
Spd
km/h
Gust
km/h
Spd
kts
Gust
kts
23/11:00pm 13.7 13.1 13.4 98 0.2 SE 9 13 5 7 - - 0.2
23/10:30pm 13.7 13.1 13.4 98 0.2 SE 9 13 5 7 - - 0.2
23/10:00pm 13.9 13.3 13.6 98 0.2 SE 9 11 5 6 - - 0.2
23/09:30pm 14.0 13.5 13.7 98 0.2 ESE 9 11 5 6 - - 0.2
23/09:00pm 14.3 13.9 14.0 98 0.2 ESE 9 11 5 6 - - 0.2
23/08:30pm 14.4 14.3 13.9 97 0.3 ESE 7 9 4 5 - - 0.2
23/08:00pm 14.8 14.4 14.0 95 0.5 ESE 9 13 5 7 - - 0.2
23/07:30pm 15.0 14.9 14.0 94 0.6 SE 7 11 4 6 - - 0.2
23/07:00pm 15.3 14.6 14.3 94 0.6 SSE 11 19 6 10 - - 0.2
23/06:30pm 15.8 14.4 14.5 92 0.7 S 15 22 8 12 - - 0.2
23/06:00pm 16.6 13.8 14.4 87 1.3 S 22 33 12 18 - - 0.0
23/05:30pm 18.4 17.8 14.5 78 2.3 SSW 11 17 6 9 - - 0.0
23/05:00pm 18.5 18.1 12.9 70 3.1 SSW 7 9 4 5 - - 0.0
23/04:30pm 20.1 19.2 13.6 66 3.7 WSW 11 15 6 8 - - 0.0
23/04:00pm 20.1 18.9 12.8 63 4.1 W 11 15 6 8 - - 0.0
23/03:30pm 19.9 19.0 12.7 63 4.1 WSW 9 13 5 7 - - 0.0
23/03:00pm 20.2 17.7 13.4 65 3.9 WSW 19 24 10 13 - - 0.0
23/02:30pm 20.7 19.1 13.9 65 3.9 SW 15 24 8 13 - - 0.0
23/02:00pm 19.5 17.3 14.5 73 2.9 WSW 19 28 10 15 - - 0.0
23/01:30pm 20.0 20.1 13.9 68 3.5 NW 6 9 3 5 - - 0.0
23/01:00pm 20.4 19.9 13.8 66 3.8 NW 9 11 5 6 - - 0.0
23/12:30pm 22.2 21.3 13.8 59 4.9 NW 11 15 6 8 - - 0.0
23/12:00pm 21.9 21.4 13.8 60 4.7 NW 9 13 5 7 - - 0.0
23/11:30am 21.5 21.0 12.6 57 5.1 NW 7 11 4 6 - - 0.0
23/11:00am 20.7 19.4 11.3 55 5.2 NNW 9 15 5 8 - - 0.0
23/10:30am 20.6 20.4 11.8 57 4.9 N 4 7 2 4 - - 0.0
23/10:00am 19.3 19.0 11.3 60 4.4 ENE 4 6 2 3 - - 0.0
23/09:30am 17.6 17.1 10.7 64 3.7 ENE 4 6 2 3 - - 0.0
23/09:00am 14.9 13.5 9.5 70 2.8 ENE 7 9 4 5 - - 0.0
23/08:30am 13.6 12.1 9.3 75 2.2 ENE 7 9 4 5 - - 0.0
23/08:00am 10.8 8.8 8.6 86 1.1 ENE 9 11 5 6 - - 0.0
23/07:30am 9.7 7.1 7.8 88 0.9 ENE 11 15 6 8 - - 0.0
23/07:00am 9.5 6.9 7.9 90 0.8 ENE 11 13 6 7 - - 0.0
23/06:30am 9.4 6.5 8.0 91 0.7 ENE 13 17 7 9 - - 0.0
23/06:00am 9.4 6.5 8.2 92 0.6 ENE 13 17 7 9 - - 0.0
23/05:30am 9.6 7.1 8.2 91 0.7 ENE 11 15 6 8 - - 0.0
23/05:00am 9.7 7.2 8.1 90 0.8 E 11 13 6 7 - - 0.0
23/04:30am 10.0 7.5 8.3 89 0.8 ENE 11 11 6 6 - - 0.0
23/04:00am 10.1 8.0 8.2 88 0.9 ENE 9 9 5 5 - - 0.0
23/03:30am 10.3 8.7 8.6 89 0.8 ENE 7 9 4 5 - - 0.0
23/03:00am 10.6 8.7 8.9 89 0.8 ENE 9 11 5 6 - - 0.0
23/02:30am 11.2 9.4 9.5 89 0.9 ENE 9 11 5 6 - - 0.0
23/02:00am 11.9 9.8 9.8 87 1.1 ENE 11 13 6 7 - - 0.0
23/01:30am 11.8 10.3 9.2 84 1.3 E 7 9 4 5 - - 0.0
23/01:00am 12.5 11.1 9.5 82 1.5 ESE 7 7 4 4 - - 0.0
23/12:30am 12.7 11.5 9.7 82 1.5 ESE 6 7 3 4 - - 0.0
23/12:00am 12.6 11.2 9.6 82 1.5 SE 7 9 4 5 - - 0.0
 
Date/Time
WST
Tmp

°C
App
Tmp
°C
Dew
Point
°C
Rel
Hum
%
Delta-T

°C
Wind Press
QNH
hPa
Press
MSL
hPa
Rain
since
9 am
mm
Dir
 
Spd
km/h
Gust
km/h
Spd
kts
Gust
kts
22/11:30pm 12.4 11.2 9.4 82 1.5 SSE 6 7 3 4 - - 0.0
22/11:00pm 12.8 11.4 9.6 81 1.6 SE 7 9 4 5 - - 0.0
22/10:30pm 13.0 11.6 9.6 80 1.7 SSE 7 9 4 5 - - 0.0
22/10:00pm 13.2 11.8 9.6 79 1.8 SE 7 9 4 5 - - 0.0
22/09:30pm 13.5 12.1 9.7 78 2.0 ESE 7 9 4 5 - - 0.0
22/09:00pm 13.6 12.3 9.8 78 2.0 ESE 7 9 4 5 - - 0.0
22/08:30pm 13.9 12.6 9.9 77 2.1 SE 7 9 4 5 - - 0.0
22/08:00pm 14.4 13.2 10.2 76 2.2 ESE 7 9 4 5 - - 0.0
22/07:30pm 14.8 13.6 10.2 74 2.4 SE 7 7 4 4 - - 0.0
22/07:00pm 15.1 13.8 9.9 71 2.7 SSE 7 9 4 5 - - 0.0
22/06:30pm 15.4 13.7 9.7 69 3.0 S 9 11 5 6 - - 0.0
22/06:00pm 16.0 14.3 9.7 66 3.3 S 9 13 5 7 - - 0.0
22/05:30pm 16.7 14.9 9.6 63 3.7 S 9 13 5 7 - - 0.0
22/05:00pm 17.8 15.8 10.2 61 4.0 SSW 11 17 6 9 - - 0.0
22/04:30pm 19.0 17.0 10.0 56 4.8 SSW 11 15 6 8 - - 0.0
22/04:00pm 19.6 17.0 9.5 52 5.4 SSW 13 17 7 9 - - 0.0
22/03:30pm 19.3 17.6 9.8 54 5.1 SSW 9 15 5 8 - - 0.0
22/03:00pm 19.9 17.5 10.0 53 5.3 SW 13 17 7 9 - - 0.0
22/02:30pm 20.5 18.4 9.7 50 5.8 WSW 11 15 6 8 - - 0.0
22/02:00pm 21.4 19.0 8.7 44 6.7 SW 11 15 6 8 - - 0.0
22/01:30pm 21.8 20.6 8.0 41 7.2 SSW 4 7 2 4 - - 0.0
22/01:00pm 21.8 20.3 6.9 38 7.6 NE 4 13 2 7 - - 0.0
22/12:30pm 21.7 19.7 7.2 39 7.5 ENE 7 17 4 9 - - 0.0
22/12:00pm 21.2 18.9 7.4 41 7.1 ENE 9 15 5 8 - - 0.0
22/11:30am 20.3 17.3 7.7 44 6.5 ENE 13 19 7 10 - - 0.0
22/11:00am 19.8 17.1 7.2 44 6.4 NE 11 19 6 10 - - 0.0
22/10:30am 18.9 15.9 7.7 48 5.7 ENE 13 22 7 12 - - 0.0
22/10:00am 17.4 14.1 8.0 54 4.8 ENE 15 24 8 13 - - 0.0
22/09:30am 16.0 12.1 7.2 56 4.4 ENE 17 26 9 14 - - 0.0
22/09:00am 15.0 11.5 7.3 60 3.8 E 15 22 8 12 - - 0.0
22/08:30am 14.0 10.5 7.1 63 3.4 E 15 24 8 13 - - 0.0
22/08:00am 12.3 8.8 7.0 70 2.5 E 15 19 8 10 - - 0.0
22/07:30am 11.5 7.8 6.4 71 2.4 E 15 20 8 11 - - 0.0
22/07:00am 11.3 7.6 6.4 72 2.3 E 15 20 8 11 - - 0.0
22/06:30am 11.2 7.5 6.5 73 2.2 E 15 17 8 9 - - 0.0
22/06:00am 10.8 7.5 6.4 74 2.1 E 13 17 7 9 - - 0.0
22/05:30am 10.6 8.0 6.2 74 2.1 E 9 11 5 6 - - 0.0
22/05:00am 10.0 7.8 5.4 73 2.1 ESE 6 7 3 4 - - 0.0
22/04:30am 10.7 8.9 5.5 70 2.4 E 4 6 2 3 - - 0.0
22/04:00am 11.3 9.0 5.6 68 2.6 E 7 9 4 5 - - 0.0
22/03:30am 12.0 9.0 5.9 66 2.9 E 11 15 6 8 - - 0.0
22/03:00am 11.8 8.4 5.7 66 2.8 E 13 17 7 9 - - 0.0
22/02:30am 12.2 8.7 5.6 64 3.1 E 13 17 7 9 - - 0.0
22/02:00am 12.0 8.2 5.6 65 3.0 E 15 20 8 11 - - 0.0
22/01:30am 11.9 9.1 5.3 64 3.1 E 9 15 5 8 - - 0.0
22/01:00am 12.5 9.7 5.0 60 3.5 ESE 9 11 5 6 - - 0.0
22/12:30am 13.3 11.0 5.0 57 3.9 ESE 6 7 3 4 - - 0.0
22/12:00am 14.0 11.1 4.9 54 4.2 E 9 15 5 8 - - 0.0
 
Date/Time
WST
Tmp

°C
App
Tmp
°C
Dew
Point
°C
Rel
Hum
%
Delta-T

°C
Wind Press
QNH
hPa
Press
MSL
hPa
Rain
since
9 am
mm
Dir
 
Spd
km/h
Gust
km/h
Spd
kts
Gust
kts
21/11:30pm 14.1 10.4 4.4 52 4.5 E 13 17 7 9 - - 0.0
21/11:00pm 14.9 11.2 4.3 49 4.9 E 13 20 7 11 - - 0.0
21/10:30pm 15.4 12.9 4.8 49 5.0 E 7 13 4 7 - - 0.0
21/10:00pm 15.6 12.7 4.6 48 5.2 E 9 17 5 9 - - 0.0
21/09:30pm 15.6 12.4 4.9 49 5.0 E 11 17 6 9 - - 0.0
21/09:00pm 15.5 12.7 5.1 50 4.9 E 9 15 5 8 - - 0.0
21/08:30pm 15.2 12.8 5.4 52 4.7 E 7 13 4 7 - - 0.0
21/08:00pm 14.9 11.8 5.4 53 4.5 ESE 11 17 6 9 - - 0.0
21/07:30pm 15.2 12.5 5.7 53 4.5 ESE 9 13 5 7 - - 0.0
21/07:00pm 15.3 12.5 5.2 51 4.8 ESE 9 13 5 7 - - 0.0
21/06:30pm 15.2 12.0 5.1 51 4.8 ESE 11 15 6 8 - - 0.0
21/06:00pm 15.3 12.5 5.2 51 4.8 ESE 9 13 5 7 - - 0.0
21/05:30pm 15.6 12.8 5.2 50 4.9 ESE 9 13 5 7 - - 0.0
21/05:00pm 16.8 14.0 5.1 46 5.6 ESE 9 17 5 9 - - 0.0
21/04:30pm 17.3 13.8 5.3 45 5.8 E 13 20 7 11 - - 0.0
21/04:00pm 17.6 14.0 4.9 43 6.1 E 13 20 7 11 - - 0.0
21/03:30pm 17.9 13.5 4.8 42 6.3 E 17 28 9 15 - - 0.0
21/03:00pm 18.8 14.0 4.9 40 6.7 ENE 19 32 10 17 - - 0.0
21/02:30pm 19.6 15.8 5.6 40 6.9 E 15 26 8 14 - - 0.0
21/02:00pm 18.1 14.3 5.7 44 6.1 E 15 26 8 14 - - 0.0
21/01:30pm 16.7 13.2 5.6 48 5.4 E 13 20 7 11 - - 0.0
21/01:00pm 16.4 12.0 4.8 46 5.5 E 17 30 9 16 - - 0.0
21/12:30pm 16.3 11.5 4.4 45 5.6 ENE 19 30 10 16 - - 0.0
21/12:00pm 17.2 12.2 4.5 43 6.0 ENE 20 32 11 17 - - 0.0
21/11:30am 16.8 11.3 3.8 42 6.1 ENE 22 33 12 18 - - 0.0
21/11:00am 16.4 11.4 3.8 43 5.8 ENE 19 33 10 18 - - 0.0
21/10:30am 15.6 9.6 3.4 44 5.6 ENE 24 39 13 21 - - 0.0
21/10:00am 14.2 9.0 3.7 49 4.8 E 20 33 11 18 - - 0.0
21/09:30am 14.2 9.2 4.5 52 4.5 E 20 32 11 17 - - 0.0
21/09:00am 11.4 6.2 3.4 58 3.5 E 20 28 11 15 - - 0.0
21/08:30am 11.1 5.4 2.9 57 3.6 E 22 32 12 17 - - 0.0
21/08:00am 11.0 5.0 3.1 58 3.4 E 24 33 13 18 - - 0.0
21/07:30am 10.3 5.0 2.9 60 3.2 E 20 30 11 16 - - 0.0
21/07:00am 10.2 4.9 2.8 60 3.2 E 20 26 11 14 - - 0.0
21/06:30am 10.1 4.8 2.9 61 3.1 E 20 28 11 15 - - 0.0
21/06:00am 10.4 5.7 3.0 60 3.2 E 17 28 9 15 - - 0.0
21/05:30am 10.7 5.4 2.8 58 3.4 E 20 30 11 16 - - 0.0
21/05:00am 10.7 5.6 2.8 58 3.4 E 19 30 10 16 - - 0.0
21/04:30am 10.8 5.7 2.9 58 3.4 E 19 28 10 15 - - 0.0
21/04:00am 10.8 5.7 2.9 58 3.4 E 19 30 10 16 - - 0.0
21/03:30am 10.8 5.5 3.1 59 3.4 E 20 28 11 15 - - 0.0
21/03:00am 10.9 6.2 3.2 59 3.4 E 17 24 9 13 - - 0.0
21/02:30am 11.2 6.1 3.3 58 3.5 E 19 26 10 14 - - 0.0
21/02:00am 11.5 6.4 3.3 57 3.6 E 19 33 10 18 - - 0.0
21/01:30am 11.6 6.6 3.4 57 3.6 E 19 28 10 15 - - 0.0
21/01:00am 11.5 6.8 3.3 57 3.6 E 17 26 9 14 - - 0.0
21/12:30am 12.0 6.4 3.5 56 3.8 E 22 35 12 19 - - 0.0
21/12:00am 12.0 7.0 3.8 57 3.7 E 19 30 10 16 - - 0.0
 
Date/Time
WST
Tmp

°C
App
Tmp
°C
Dew
Point
°C
Rel
Hum
%
Delta-T

°C
Wind Press
QNH
hPa
Press
MSL
hPa
Rain
since
9 am
mm
Dir
 
Spd
km/h
Gust
km/h
Spd
kts
Gust
kts
20/11:30pm 11.8 6.8 3.8 58 3.6 E 19 26 10 14 - - 0.0

Latest Capital City Observations: Canberra | Sydney | Melbourne | Brisbane | Adelaide | Perth | Hobart | Darwin

Other Formats:

Comma delimited format used in spreadsheet applications
http://www.bom.gov.au/fwo/IDW60901/IDW60901.94614.axf

JavaScript Object Notation format (JSON) in row-major order
http://www.bom.gov.au/fwo/IDW60901/IDW60901.94614.json